createdAt,value
2019-05-01T00:00:46.468Z,34.60
2019-05-01T00:03:32.225Z,33.83
2019-05-01T00:06:02.569Z,34.95
2019-05-01T00:08:31.342Z,34.30
2019-05-01T00:11:00.341Z,37.70
2019-05-01T00:13:29.236Z,34.60
2019-05-01T00:15:58.104Z,37.35
2019-05-01T00:18:26.967Z,39.20
2019-05-01T00:20:55.529Z,38.75
2019-05-01T00:23:24.369Z,36.38
2019-05-01T00:25:53.226Z,36.75
2019-05-01T00:28:22.171Z,37.55
2019-05-01T00:30:51.091Z,39.45
2019-05-01T00:33:19.851Z,38.48
2019-05-01T00:35:48.681Z,39.48
2019-05-01T00:38:17.357Z,38.40
2019-05-01T00:40:46.192Z,39.13
2019-05-01T00:43:14.765Z,37.30
2019-05-01T00:45:44.160Z,41.25
2019-05-01T00:48:12.844Z,39.23
2019-05-01T00:50:41.569Z,39.27
2019-05-01T00:53:10.404Z,37.67
2019-05-01T00:55:57.036Z,39.20
2019-05-01T00:58:42.767Z,40.35
2019-05-01T01:01:31.600Z,41.75
2019-05-01T01:04:00.602Z,39.90
2019-05-01T01:06:29.256Z,41.68
2019-05-01T01:08:58.218Z,41.77
2019-05-01T01:11:27.123Z,41.92
2019-05-01T01:13:56.005Z,45.05
2019-05-01T01:16:25.015Z,42.93
2019-05-01T01:18:53.923Z,44.20
2019-05-01T01:21:22.658Z,43.38
2019-05-01T01:23:51.600Z,46.53
2019-05-01T01:26:20.466Z,46.15
2019-05-01T01:28:49.455Z,45.00
2019-05-01T01:31:18.286Z,43.78
2019-05-01T01:33:47.150Z,46.25
2019-05-01T01:36:15.737Z,45.67
2019-05-01T01:38:44.616Z,44.98
2019-05-01T01:41:13.421Z,43.52
2019-05-01T01:43:43.957Z,41.10
2019-05-01T01:46:20.504Z,45.20
2019-05-01T01:48:49.362Z,47.25
2019-05-01T01:51:18.581Z,45.73
2019-05-01T01:53:47.647Z,45.52
2019-05-01T01:56:17.263Z,45.95
2019-05-01T01:58:46.823Z,45.63
2019-05-01T02:01:17.386Z,46.70
2019-05-01T02:03:59.690Z,44.85
2019-05-01T02:06:28.502Z,45.20
2019-05-01T02:08:57.552Z,46.45
2019-05-01T02:11:27.074Z,45.98
2019-05-01T02:13:56.852Z,47.50
2019-05-01T02:16:25.967Z,46.23
2019-05-01T02:18:54.688Z,46.83
2019-05-01T02:21:23.542Z,46.15
2019-05-01T02:23:52.334Z,48.38
2019-05-01T02:26:23.125Z,46.48
2019-05-01T02:28:56.673Z,48.17
2019-05-01T02:31:29.656Z,45.90
2019-05-01T02:34:00.063Z,47.20
2019-05-01T02:36:29.975Z,47.83
2019-05-01T02:38:59.786Z,48.10
2019-05-01T02:41:31.553Z,46.15
2019-05-01T02:44:03.404Z,47.90
2019-05-01T02:46:35.323Z,45.73
2019-05-01T02:49:12.741Z,48.92
2019-05-01T02:51:43.875Z,47.58
2019-05-01T02:54:14.668Z,46.10
2019-05-01T02:56:55.865Z,47.33
2019-05-01T02:59:26.708Z,47.13
2019-05-01T03:01:55.864Z,48.30
2019-05-01T03:04:47.115Z,48.20
2019-05-01T03:07:17.678Z,45.88
2019-05-01T03:09:47.356Z,48.65
2019-05-01T03:12:19.172Z,47.23
2019-05-01T03:14:50.302Z,47.75
2019-05-01T03:17:24.165Z,48.52
2019-05-01T03:19:58.024Z,49.13
2019-05-01T03:22:28.673Z,46.58
2019-05-01T03:24:57.623Z,48.00
2019-05-01T03:27:26.594Z,47.50
2019-05-01T03:29:56.027Z,45.83
2019-05-01T03:32:25.227Z,47.25
2019-05-01T03:34:54.532Z,49.42
2019-05-01T03:37:23.509Z,49.55
2019-05-01T03:39:53.196Z,48.30
2019-05-01T03:42:22.540Z,51.30
2019-05-01T03:44:51.392Z,49.90
2019-05-01T03:47:20.154Z,52.30
2019-05-01T03:49:49.192Z,49.80
2019-05-01T03:52:18.009Z,51.45
2019-05-01T03:54:46.886Z,56.75
2019-05-01T03:57:16.510Z,55.25
2019-05-01T03:59:46.275Z,49.08
2019-05-01T04:02:33.556Z,53.87
2019-05-01T04:07:26.491Z,53.28
2019-05-01T04:09:56.085Z,56.58
2019-05-01T04:12:25.857Z,54.83
2019-05-01T04:14:55.540Z,56.65
2019-05-01T04:17:35.466Z,52.13
2019-05-01T04:20:05.310Z,58.98
2019-05-01T04:22:34.801Z,58.90
2019-05-01T04:25:04.292Z,54.93
2019-05-01T04:27:34.924Z,57.80
2019-05-01T04:30:05.971Z,61.10
2019-05-01T04:32:51.016Z,59.15
2019-05-01T04:35:20.334Z,61.15
2019-05-01T04:37:50.093Z,59.77
2019-05-01T04:40:20.270Z,59.20
2019-05-01T04:42:49.447Z,61.35
2019-05-01T04:45:19.124Z,59.98
2019-05-01T04:47:48.710Z,64.90
2019-05-01T04:50:17.800Z,58.40
2019-05-01T04:52:46.996Z,61.23
2019-05-01T04:55:17.053Z,52.48
2019-05-01T04:57:46.952Z,57.70
2019-05-01T05:00:16.456Z,56.00
2019-05-01T05:02:47.101Z,54.50
2019-05-01T05:05:16.703Z,53.00
2019-05-01T05:07:46.374Z,51.20
2019-05-01T05:10:15.551Z,52.30
2019-05-01T05:12:46.451Z,51.92
2019-05-01T05:15:20.013Z,49.18
2019-05-01T05:17:49.351Z,50.48
2019-05-01T05:20:18.719Z,47.27
2019-05-01T05:22:48.662Z,48.95
2019-05-01T05:25:17.783Z,50.73
2019-05-01T05:27:47.390Z,50.55
2019-05-01T05:30:16.682Z,53.17
2019-05-01T05:32:47.709Z,48.05
2019-05-01T05:35:18.719Z,53.13
2019-05-01T05:37:54.378Z,47.40
2019-05-01T05:40:24.161Z,56.35
2019-05-01T05:42:54.404Z,54.45
2019-05-01T05:45:23.824Z,56.05
2019-05-01T05:47:52.944Z,55.43
2019-05-01T05:50:23.947Z,57.88
2019-05-01T05:53:11.441Z,60.28
2019-05-01T05:55:45.363Z,59.05
2019-05-01T05:58:18.256Z,59.35
2019-05-01T06:00:53.934Z,58.10
2019-05-01T06:03:43.208Z,57.40
2019-05-01T06:06:16.917Z,53.30
2019-05-01T06:08:48.059Z,50.83
2019-05-01T06:11:33.817Z,52.95
2019-05-01T06:14:18.276Z,47.33
2019-05-01T06:16:55.486Z,47.88
2019-05-01T06:19:29.100Z,45.58
2019-05-01T06:22:16.831Z,46.70
2019-05-01T06:24:57.867Z,47.23
2019-05-01T06:27:27.755Z,46.30
2019-05-01T06:29:58.136Z,47.60
2019-05-01T06:32:28.790Z,48.73
2019-05-01T06:34:58.474Z,47.10
2019-05-01T06:38:00.207Z,51.35
2019-05-01T06:40:43.662Z,46.95
2019-05-01T06:43:25.225Z,45.28
2019-05-01T06:46:07.677Z,45.75
2019-05-01T06:48:38.555Z,47.40
2019-05-01T06:51:13.002Z,45.60
2019-05-01T06:53:41.313Z,44.40
2019-05-01T06:56:10.689Z,43.87
2019-05-01T06:58:39.693Z,43.52
2019-05-01T07:01:08.976Z,42.93
2019-05-01T07:03:40.851Z,40.75
2019-05-01T07:06:14.346Z,42.30
2019-05-01T07:08:39.744Z,41.25
2019-05-01T07:11:10.937Z,37.00
2019-05-01T07:13:41.517Z,42.43
2019-05-01T07:16:10.931Z,39.65
2019-05-01T07:18:40.090Z,36.42
2019-05-01T07:21:09.158Z,34.85
2019-05-01T07:23:38.642Z,35.35
2019-05-01T07:26:10.014Z,34.88
2019-05-01T07:28:40.142Z,34.60
2019-05-01T07:31:10.927Z,33.48
2019-05-01T07:33:40.140Z,34.18
2019-05-01T07:36:15.204Z,35.38
2019-05-01T07:38:44.299Z,35.88
2019-05-01T07:41:13.489Z,36.83
2019-05-01T07:43:44.891Z,36.80
2019-05-01T07:46:25.066Z,37.10
2019-05-01T07:48:54.386Z,35.98
2019-05-01T07:51:23.744Z,35.58
2019-05-01T07:53:53.192Z,35.35
2019-05-01T07:56:27.548Z,37.03
2019-05-01T07:58:53.908Z,34.98
2019-05-01T08:01:27.876Z,33.75
2019-05-01T08:03:57.251Z,31.15
2019-05-01T08:06:26.416Z,33.08
2019-05-01T08:08:55.612Z,29.77
2019-05-01T08:11:24.947Z,29.18
2019-05-01T08:14:06.590Z,29.30
2019-05-01T08:16:25.133Z,28.65
2019-05-01T08:19:05.895Z,29.80
2019-05-01T08:21:39.450Z,29.95
2019-05-01T08:24:08.830Z,31.00
2019-05-01T08:26:39.788Z,30.50
2019-05-01T08:29:19.153Z,30.10
2019-05-01T08:32:07.367Z,29.63
2019-05-01T08:34:48.475Z,29.05
2019-05-01T08:37:08.775Z,30.12
2019-05-01T08:39:39.606Z,29.07
2019-05-01T08:42:09.436Z,29.10
2019-05-01T08:44:59.928Z,29.23
2019-05-01T08:47:28.763Z,29.25
2019-05-01T08:49:59.223Z,28.70
2019-05-01T08:52:28.347Z,29.20
2019-05-01T08:54:57.610Z,27.77
2019-05-01T08:57:29.213Z,27.85
2019-05-01T09:00:00.265Z,26.30
2019-05-01T09:02:28.326Z,26.70
2019-05-01T09:05:02.618Z,27.32
2019-05-01T09:07:28.436Z,26.40
2019-05-01T09:09:57.352Z,25.77
2019-05-01T09:12:26.985Z,26.20
2019-05-01T09:14:56.231Z,24.92
2019-05-01T09:17:25.589Z,24.07
2019-05-01T09:19:54.783Z,26.48
2019-05-01T09:22:23.995Z,25.68
2019-05-01T09:24:54.459Z,24.82
2019-05-01T09:27:40.740Z,23.40
2019-05-01T09:30:28.694Z,24.92
2019-05-01T09:32:58.029Z,22.58
2019-05-01T09:35:27.214Z,21.30
2019-05-01T09:37:56.688Z,22.50
2019-05-01T09:40:25.796Z,22.87
2019-05-01T09:42:59.264Z,23.80
2019-05-01T09:45:26.362Z,21.23
2019-05-01T09:47:56.015Z,22.02
2019-05-01T09:50:25.838Z,21.20
2019-05-01T09:55:49.237Z,19.90
2019-05-01T09:58:18.811Z,20.02
2019-05-01T10:00:48.740Z,18.75
2019-05-01T10:03:18.815Z,18.48
2019-05-01T10:05:47.845Z,16.35
2019-05-01T10:08:17.185Z,18.12
2019-05-01T10:10:46.422Z,15.78
2019-05-01T10:13:17.764Z,15.80
2019-05-01T10:15:46.446Z,15.48
2019-05-01T10:18:15.716Z,15.60
2019-05-01T10:20:44.975Z,16.15
2019-05-01T10:23:15.082Z,16.05
2019-05-01T10:25:47.928Z,14.30
2019-05-01T10:28:18.013Z,14.47
2019-05-01T10:30:49.054Z,14.18
2019-05-01T10:33:28.972Z,13.50
2019-05-01T10:36:03.967Z,12.68
2019-05-01T10:38:33.272Z,11.75
2019-05-01T10:41:04.163Z,13.32
2019-05-01T10:43:33.215Z,11.10
2019-05-01T10:46:02.687Z,11.10
2019-05-01T10:48:31.878Z,11.40
2019-05-01T10:51:01.424Z,11.35
2019-05-01T10:53:30.783Z,12.10
2019-05-01T10:55:59.810Z,9.45
2019-05-01T10:58:29.090Z,8.90
2019-05-01T11:00:59.882Z,9.00
2019-05-01T11:03:29.227Z,9.63
2019-05-01T11:05:58.476Z,9.40
2019-05-01T11:08:27.835Z,8.40
2019-05-01T11:10:57.310Z,7.45
2019-05-01T11:13:26.452Z,9.13
2019-05-01T11:15:55.751Z,8.20
2019-05-01T11:18:24.974Z,6.53
2019-05-01T11:20:54.247Z,9.10
2019-05-01T11:23:23.914Z,7.92
2019-05-01T11:25:53.323Z,7.45
2019-05-01T11:28:22.607Z,8.65
2019-05-01T11:30:51.866Z,9.15
2019-05-01T11:33:28.883Z,10.50
2019-05-01T11:36:11.986Z,11.05
2019-05-01T11:38:43.056Z,9.98
2019-05-01T11:41:14.048Z,9.13
2019-05-01T11:43:43.802Z,9.23
2019-05-01T11:46:13.103Z,9.03
2019-05-01T11:48:44.487Z,9.98
2019-05-01T11:53:42.681Z,9.48
2019-05-01T11:56:12.781Z,8.78
2019-05-01T11:58:42.311Z,9.90
2019-05-01T12:01:13.088Z,8.55
2019-05-01T12:03:42.686Z,8.63
2019-05-01T12:06:22.342Z,8.60
2019-05-01T12:11:12.363Z,7.65
2019-05-01T12:13:44.056Z,8.25
2019-05-01T12:16:14.436Z,8.45
2019-05-01T12:21:12.591Z,6.42
2019-05-01T12:23:42.155Z,6.20
2019-05-01T12:26:11.705Z,7.10
2019-05-01T12:28:41.609Z,8.78
2019-05-01T12:31:10.960Z,7.35
2019-05-01T12:33:40.540Z,6.60
2019-05-01T12:36:09.952Z,6.87
2019-05-01T12:38:39.108Z,6.58
2019-05-01T12:41:26.357Z,7.12
2019-05-01T12:43:56.048Z,7.33
2019-05-01T12:46:45.072Z,6.55
2019-05-01T12:49:15.827Z,8.05
2019-05-01T12:51:46.877Z,7.37
2019-05-01T12:54:20.781Z,7.62
2019-05-01T12:57:01.124Z,7.35
2019-05-01T12:59:30.723Z,6.10
2019-05-01T13:02:00.026Z,6.53
2019-05-01T13:04:29.253Z,7.35
2019-05-01T13:06:59.480Z,7.45
2019-05-01T13:09:29.201Z,8.60
2019-05-01T13:11:58.805Z,6.90
2019-05-01T13:14:28.308Z,7.15
2019-05-01T13:16:57.567Z,7.30
2019-05-01T13:19:26.985Z,7.28
2019-05-01T13:21:56.360Z,6.55
2019-05-01T13:24:25.873Z,7.30
2019-05-01T13:27:15.040Z,6.78
2019-05-01T13:29:46.315Z,6.42
2019-05-01T13:32:26.745Z,6.50
2019-05-01T13:34:56.811Z,6.58
2019-05-01T13:37:26.075Z,6.92
2019-05-01T13:39:55.879Z,6.97
2019-05-01T13:42:25.453Z,7.20
2019-05-01T13:44:54.764Z,6.65
2019-05-01T13:47:24.072Z,6.80
2019-05-01T13:49:53.658Z,6.53
2019-05-01T13:52:23.652Z,6.43
2019-05-01T13:54:53.199Z,6.42
2019-05-01T13:57:22.644Z,5.93
2019-05-01T13:59:52.258Z,6.00
2019-05-01T14:02:21.742Z,5.80
2019-05-01T14:04:51.032Z,7.27
2019-05-01T14:07:20.497Z,6.97
2019-05-01T14:09:49.916Z,6.40
2019-05-01T14:12:19.131Z,6.20
2019-05-01T14:14:48.359Z,6.15
2019-05-01T14:17:17.758Z,6.58
2019-05-01T14:19:48.775Z,7.05
2019-05-01T14:22:19.827Z,6.90
2019-05-01T14:24:50.940Z,6.55
2019-05-01T14:27:20.578Z,7.22
2019-05-01T14:29:50.150Z,6.75
2019-05-01T14:32:19.499Z,6.50
2019-05-01T14:34:48.960Z,7.33
2019-05-01T14:37:29.114Z,7.22
2019-05-01T14:39:49.475Z,7.10
2019-05-01T14:42:19.492Z,7.50
2019-05-01T14:44:50.780Z,7.42
2019-05-01T14:47:20.412Z,7.85
2019-05-01T14:49:49.937Z,7.85
2019-05-01T14:52:19.141Z,7.05
2019-05-01T14:54:48.668Z,7.10
2019-05-01T14:57:18.180Z,7.30
2019-05-01T14:59:47.471Z,7.22
2019-05-01T15:02:17.180Z,6.37
2019-05-01T15:04:46.707Z,6.67
2019-05-01T15:07:16.025Z,6.80
2019-05-01T15:09:45.138Z,7.33
2019-05-01T15:12:14.374Z,6.33
2019-05-01T15:15:00.207Z,6.97
2019-05-01T15:17:30.797Z,6.83
2019-05-01T15:20:04.875Z,6.80
2019-05-01T15:22:34.189Z,7.25
2019-05-01T15:25:03.346Z,7.47
2019-05-01T15:27:32.567Z,6.92
2019-05-01T15:30:01.705Z,7.12
2019-05-01T15:32:30.827Z,7.15
2019-05-01T15:34:59.967Z,7.58
2019-05-01T15:37:29.212Z,7.55
2019-05-01T15:40:00.297Z,7.10
2019-05-01T15:42:31.459Z,7.37
2019-05-01T15:47:29.330Z,6.72
2019-05-01T15:49:58.636Z,6.55
2019-05-01T15:52:27.871Z,7.10
2019-05-01T15:54:57.192Z,6.25
2019-05-01T15:57:26.589Z,6.60
2019-05-01T15:59:55.996Z,6.37
2019-05-01T16:02:25.330Z,7.10
2019-05-01T16:04:54.740Z,6.58
2019-05-01T16:07:24.455Z,6.35
2019-05-01T16:09:53.787Z,6.72
2019-05-01T16:12:30.804Z,6.92
2019-05-01T16:15:00.313Z,7.37
2019-05-01T16:17:29.824Z,7.60
2019-05-01T16:19:59.019Z,6.80
2019-05-01T16:22:28.615Z,7.40
2019-05-01T16:24:58.308Z,6.45
2019-05-01T16:27:27.785Z,6.75
2019-05-01T16:29:57.124Z,7.10
2019-05-01T16:32:26.413Z,6.28
2019-05-01T16:34:55.962Z,6.45
2019-05-01T16:37:25.240Z,6.65
2019-05-01T16:39:56.143Z,6.35
2019-05-01T16:42:26.748Z,6.40
2019-05-01T16:44:56.232Z,6.05
2019-05-01T16:47:25.780Z,6.40
2019-05-01T16:49:55.319Z,6.37
2019-05-01T16:52:26.564Z,5.92
2019-05-01T16:54:59.498Z,6.60
2019-05-01T16:57:26.651Z,6.17
2019-05-01T16:59:56.440Z,5.90
2019-05-01T17:02:33.450Z,6.37
2019-05-01T17:05:32.492Z,6.17
2019-05-01T17:08:15.497Z,6.85
2019-05-01T17:10:52.430Z,6.95
2019-05-01T17:13:21.845Z,8.38
2019-05-01T17:15:51.835Z,7.67
2019-05-01T17:18:21.246Z,7.42
2019-05-01T17:20:50.486Z,7.45
2019-05-01T17:23:20.015Z,7.72
2019-05-01T17:25:49.013Z,7.83
2019-05-01T17:28:18.347Z,7.08
2019-05-01T17:30:50.360Z,6.97
2019-05-01T17:33:20.756Z,6.25
2019-05-01T17:35:50.543Z,6.80
2019-05-01T17:38:20.221Z,6.20
2019-05-01T17:40:51.974Z,5.55
2019-05-01T17:43:20.461Z,6.35
2019-05-01T17:45:50.031Z,5.55
2019-05-01T17:48:19.416Z,5.85
2019-05-01T17:50:48.826Z,5.62
2019-05-01T17:53:18.393Z,5.92
2019-05-01T17:55:47.686Z,5.90
2019-05-01T17:58:16.903Z,5.58
2019-05-01T18:00:47.600Z,6.25
2019-05-01T18:03:21.497Z,6.15
2019-05-01T18:06:10.883Z,6.03
2019-05-01T18:08:40.377Z,5.72
2019-05-01T18:11:14.146Z,5.50
2019-05-01T18:13:41.078Z,5.87
2019-05-01T18:16:10.511Z,5.17
2019-05-01T18:18:40.224Z,5.85
2019-05-01T18:21:11.290Z,6.17
2019-05-01T18:24:01.404Z,5.62
2019-05-01T18:26:32.112Z,6.08
2019-05-01T18:29:15.732Z,6.20
2019-05-01T18:31:44.997Z,6.10
2019-05-01T18:34:14.620Z,5.50
2019-05-01T18:37:02.099Z,6.83
2019-05-01T18:39:33.087Z,6.85
2019-05-01T18:42:04.380Z,7.15
2019-05-01T18:44:34.053Z,7.85
2019-05-01T18:47:03.461Z,8.18
2019-05-01T18:49:33.207Z,8.48
2019-05-01T18:52:02.758Z,8.43
2019-05-01T18:54:35.132Z,8.75
2019-05-01T18:57:03.230Z,9.20
2019-05-01T18:59:33.067Z,9.65
2019-05-01T19:02:02.716Z,8.00
2019-05-01T19:04:32.473Z,8.85
2019-05-01T19:07:02.151Z,8.35
2019-05-01T19:09:31.584Z,9.28
2019-05-01T19:12:00.738Z,9.93
2019-05-01T19:14:30.868Z,10.55
2019-05-01T19:17:00.634Z,10.90
2019-05-01T19:19:29.600Z,10.68
2019-05-01T19:21:58.483Z,10.50
2019-05-01T19:24:27.291Z,10.28
2019-05-01T19:26:55.953Z,9.55
2019-05-01T19:29:26.860Z,10.50
2019-05-01T19:31:57.220Z,9.13
2019-05-01T19:34:25.888Z,9.53
2019-05-01T19:36:54.650Z,9.83
2019-05-01T19:39:23.424Z,10.80
2019-05-01T19:41:54.591Z,10.50
2019-05-01T19:44:22.730Z,11.40
2019-05-01T19:46:54.938Z,11.88
2019-05-01T19:49:24.734Z,12.13
2019-05-01T19:51:55.450Z,12.35
2019-05-01T19:54:28.097Z,12.30
2019-05-01T19:56:55.349Z,13.67
2019-05-01T19:59:24.203Z,12.78
2019-05-01T20:01:52.878Z,12.70
2019-05-01T20:04:22.023Z,13.22
2019-05-01T20:06:50.872Z,13.28
2019-05-01T20:09:20.144Z,13.20
2019-05-01T20:11:49.160Z,13.53
2019-05-01T20:14:18.086Z,13.03
2019-05-01T20:16:47.064Z,12.88
2019-05-01T20:19:15.894Z,14.87
2019-05-01T20:21:44.861Z,14.65
2019-05-01T20:24:13.898Z,15.03
2019-05-01T20:26:42.617Z,14.53
2019-05-01T20:29:11.473Z,14.70
2019-05-01T20:31:40.405Z,15.00
2019-05-01T20:34:11.966Z,16.45
2019-05-01T20:36:39.815Z,15.75
2019-05-01T20:39:08.790Z,15.65
2019-05-01T20:41:37.568Z,16.65
2019-05-01T20:44:06.477Z,16.97
2019-05-01T20:46:35.279Z,16.70
2019-05-01T20:49:06.509Z,19.05
2019-05-01T20:51:34.399Z,18.00
2019-05-01T20:54:03.608Z,18.80
2019-05-01T20:56:33.967Z,17.67
2019-05-01T20:59:04.939Z,18.45
2019-05-01T21:01:33.539Z,17.40
2019-05-01T21:04:03.885Z,17.73
2019-05-01T21:06:34.276Z,16.70
2019-05-01T21:09:08.174Z,17.48
2019-05-01T21:11:36.463Z,17.10
2019-05-01T21:14:19.861Z,17.30
2019-05-01T21:16:38.070Z,17.57
2019-05-01T21:19:06.200Z,18.37
2019-05-01T21:21:34.920Z,17.27
2019-05-01T21:24:04.026Z,18.20
2019-05-01T21:26:33.586Z,17.67
2019-05-01T21:29:04.087Z,17.90
2019-05-01T21:31:34.131Z,18.35
2019-05-01T21:34:04.252Z,19.35
2019-05-01T21:36:33.147Z,20.10
2019-05-01T21:39:01.932Z,20.70
2019-05-01T21:41:32.790Z,22.30
2019-05-01T21:44:03.050Z,23.90
2019-05-01T21:46:31.552Z,22.75
2019-05-01T21:49:00.236Z,24.18
2019-05-01T21:51:28.950Z,23.87
2019-05-01T21:53:57.916Z,24.15
2019-05-01T21:56:26.600Z,24.55
2019-05-01T21:58:59.531Z,24.32
2019-05-01T22:01:25.805Z,27.25
2019-05-01T22:03:57.106Z,27.20
2019-05-01T22:06:25.830Z,27.20
2019-05-01T22:08:54.910Z,27.85
2019-05-01T22:11:23.615Z,27.10
2019-05-01T22:13:55.091Z,28.40
2019-05-01T22:16:24.610Z,28.73
2019-05-01T22:19:06.876Z,29.55
2019-05-01T22:21:52.388Z,29.30
2019-05-01T22:24:39.234Z,30.95
2019-05-01T22:27:12.903Z,31.42
2019-05-01T22:29:43.233Z,29.85
2019-05-01T22:32:27.769Z,31.80
2019-05-01T22:35:03.621Z,31.85
2019-05-01T22:37:32.865Z,33.78
2019-05-01T22:40:04.393Z,33.38
2019-05-01T22:42:33.309Z,32.50
2019-05-01T22:45:02.072Z,33.53
2019-05-01T22:47:31.117Z,31.15
2019-05-01T22:49:59.967Z,32.83
2019-05-01T22:52:28.702Z,34.05
2019-05-01T22:54:57.898Z,33.75
2019-05-01T22:57:26.639Z,34.38
2019-05-01T22:59:55.521Z,33.88
2019-05-01T23:02:42.737Z,33.73
2019-05-01T23:05:11.842Z,36.28
2019-05-01T23:07:40.759Z,36.33
2019-05-01T23:10:10.071Z,35.00
2019-05-01T23:12:38.861Z,35.45
2019-05-01T23:15:12.359Z,38.25
2019-05-01T23:17:46.187Z,35.68
2019-05-01T23:20:16.394Z,36.58
2019-05-01T23:22:45.265Z,35.83
2019-05-01T23:25:14.740Z,34.73
2019-05-01T23:27:43.615Z,35.23
2019-05-01T23:30:16.375Z,36.40
2019-05-01T23:32:45.866Z,37.03
2019-05-01T23:35:14.881Z,35.45
2019-05-01T23:37:43.624Z,36.00
2019-05-01T23:40:15.474Z,34.80
2019-05-01T23:42:51.997Z,37.17
2019-05-01T23:45:14.452Z,34.55
2019-05-01T23:47:43.909Z,34.80
2019-05-01T23:50:13.761Z,35.00
2019-05-01T23:52:42.568Z,35.98
2019-05-01T23:55:11.525Z,33.83
2019-05-01T23:57:40.346Z,34.08
